Latest METARs, TAFs and NOTAMs for EINN


---------------------------------------------------------------------------
	(OBSERVATIONS)
EINN 210230Z 19005KT 9999 FEW006 BKN011 14/13 Q1019 TEMPO BKN008=
EINN 210200Z 25003KT 9999 -DZ FEW004 SCT007 BKN011 14/14 Q1019
    TEMPO BKN008=
EINN 210130Z 27005KT 9999 -DZ FEW004 BKN011 BKN015 14/14 Q1019
    TEMPO BKN008=
EINN 210100Z 26004KT 230V320 9999 -DZ FEW004 SCT007 BKN012 14/13
    Q1020 TEMPO BKN008=
EINN 210030Z 28005KT 9999 -RADZ FEW004 SCT008 BKN010 15/14 Q1020
    TEMPO BKN008=
EINN 210000Z 26006KT 9999 -DZ FEW005 BKN011 BKN015 15/14 Q1020
    TEMPO BKN008=
---------------------------------------------------------------------------
	(FC)
Sorry, FC For EINN Not Found
---------------------------------------------------------------------------
	(TERMINAL AREA FORECAST)
EINN 202300Z 2100/2124 24006KT 9999 SCT008 BKN012
    TEMPO 2100/2109 4000 -DZ BR BKN006
    BECMG 2103/2106 19006KT
    BECMG 2109/2112 22012KT BKN020 PROB30
    TEMPO 2112/2118 BKN014
    BECMG 2118/2121 BKN014
    BECMG 2122/2124 5000 -RA BKN009=
---------------------------------------------------------------------------
	(NOTAMS)


EINN A2111/18 TRIGGER NOTAM IRELAND AIRAC AMENDMENT NR009 EFFECTIVE
    DATE 13 SEP 2018. INCLUDED IN THIS AMENDMENT IS THE UPDATED
    EINN AD 2.22 FLIGHT PROCEDURES. 13 SEP 00:00 2018 UNTIL 27
    SEP 23:59 2018. CREATED: 02 AUG 13:32 2018

EINN B0541/18 EINN ARRIVALS - CAUTION - SHANNON APPROACH AIRSPACE
    IS A LEVEL BUST HOTSPOT AREA. ENSURE ALTIMETER SET TO HECTOPASCALS(HPA)
    WHEN INSTRUCTED BY SHANNON APPROACH. REF EINN AD 2.22. 19
    JUL 10:20 2018 UNTIL PERM. CREATED: 19 JUL 10:19 2018

EINN B0648/18 RWY EDGE LIGHTS RWY24 EVERY SECOND LIGHT OUT OF
    SERVICE CAT 2 LANDINGS NOT AVAILABLE. 20 AUG 19:58 2018 UNTIL
    21 AUG 12:00 2018. CREATED: 20 AUG 19:59 2018

EINN B1142/15 HOLDING PROCEDURE CHANGED. RATE OF DESCENT IN HOLDING
    PATTERNS AMENDED TO: A STANDARD RATE OF DESCENT OF 1000FT
    PER MIN IN HOLDING PATTERNS WILL BE USED UNLESS OTHERWISE
    INSTRUCTED BY ATC. PILOTS MUST ADVISE ATC IF UNABLE TO COMPLY
    WITH THE STANDARD RATE OF DESCENT. REF AIP EINN AD 2.22 SECTION
    9. 02 OCT 18:07 2015 UNTIL PERM. CREATED: 01 MAY 11:24 2017

---------------------------------------------------------------------------